NCAR-RAP Real-Time Weather Data

Output produced by METARs form (12 August 2020  18:55 UTC)
found at http://weather.rap.ucar.edu/surface/
 
KANJ 121755Z AUTO VRB06KT 10SM CLR 28/13 A3008 RMK AO2 SLP182 T02780133 10278 20194 53007
KANJ 121655Z AUTO VRB03KT 10SM CLR 27/14 A3007 RMK AO2 SLP178 T02720144
KANJ 121555Z AUTO 00000KT 10SM CLR 26/14 A3006 RMK AO2 SLP175 T02560144
KANJ 121455Z AUTO VRB03KT 10SM CLR 24/16 A3006 RMK AO2 SLP174 T02440161 50004
KANJ 121355Z AUTO 00000KT 10SM CLR 22/16 A3006 RMK AO2 SLP176 T02220156 TSNO
KANJ 121255Z AUTO 31003KT 10SM CLR 21/15 A3006 RMK AO2 SLP174 T02110150 TSNO
KANJ 121155Z AUTO 30005KT 10SM CLR 19/15 A3005 RMK AO2 SLP170 T01940150 10194 20150 53020 TSNO
KANJ 121055Z AUTO 29007KT 10SM CLR 18/15 A3003 RMK AO2 SLP162 T01830150 TSNO
KANJ 120955Z AUTO 31003KT 10SM CLR 17/14 A3001 RMK AO2 SLP157 T01670144 TSNO
KANJ 120855Z AUTO 36003KT 10SM CLR 16/14 A2999 RMK AO2 SLP150 T01560139 53019
KANJ 120755Z AUTO 00000KT 10SM CLR 17/14 A2997 RMK AO2 SLP142 T01670144
KANJ 120655Z AUTO 24004KT 10SM CLR 18/15 A2995 RMK AO2 SLP136 T01830150
KANJ 120555Z AUTO 23006KT 10SM CLR 19/15 A2993 RMK AO2 SLP131 T01890150 10239 20189 51007
KANJ 120455Z AUTO 25006KT 10SM CLR 19/14 A2992 RMK AO2 SLP128 T01890139 402720133
KANJ 120355Z AUTO 24008KT 10SM CLR 19/13 A2992 RMK AO2 SLP127 T01940128
KANJ 120255Z AUTO 24009KT 10SM CLR 21/12 A2991 RMK AO2 SLP124 T02060117 51009
KANJ 120155Z AUTO 24005KT 10SM CLR 20/11 A2991 RMK AO2 SLP124 T02000111
KANJ 120055Z AUTO 22008KT 10SM CLR 22/11 A2990 RMK AO2 SLP120 T02170111
KANJ 112355Z AUTO 22009KT 10SM CLR 24/12 A2988 RMK AO2 SLP115 T02390117 10272 20239 55002
KANJ 112255Z AUTO 22009G20KT 10SM CLR 26/13 A2988 RMK AO2 SLP115 T02560128
KANJ 112155Z AUTO 29007KT 10SM CLR 27/11 A2988 RMK AO2 SLP116 T02720106